createdAt,value
2023-01-20T00:01:09.820Z,-0.47
2023-01-20T00:03:38.060Z,-0.45
2023-01-20T00:06:06.052Z,-0.49
2023-01-20T00:08:34.031Z,-0.45
2023-01-20T00:11:05.373Z,-0.43
2023-01-20T00:13:34.558Z,-0.43
2023-01-20T00:16:03.832Z,-0.43
2023-01-20T00:18:31.940Z,-0.51
2023-01-20T00:21:03.472Z,-0.53
2023-01-20T00:23:31.344Z,-0.56
2023-01-20T00:25:59.264Z,-0.58
2023-01-20T00:28:27.275Z,-0.61
2023-01-20T00:30:56.614Z,-0.59
2023-01-20T00:33:24.477Z,-0.60
2023-01-20T00:35:52.223Z,-0.57
2023-01-20T00:38:20.962Z,-0.54
2023-01-20T00:40:54.871Z,-0.58
2023-01-20T00:43:22.712Z,-0.62
2023-01-20T00:45:50.445Z,-0.61
2023-01-20T00:48:19.533Z,-0.60
2023-01-20T00:50:47.308Z,-0.59
2023-01-20T00:53:15.616Z,-0.61
2023-01-20T00:55:43.357Z,-0.59
2023-01-20T00:58:11.266Z,-0.59
2023-01-20T01:00:39.245Z,-0.61
2023-01-20T01:03:07.178Z,-0.65
2023-01-20T01:05:36.480Z,-0.67
2023-01-20T01:08:04.543Z,-0.68
2023-01-20T01:10:32.604Z,-0.69
2023-01-20T01:13:00.819Z,-0.74
2023-01-20T01:15:28.658Z,-0.86
2023-01-20T01:17:57.616Z,-0.90
2023-01-20T01:20:25.684Z,-0.98
2023-01-20T01:22:54.854Z,-0.94
2023-01-20T01:25:22.855Z,-0.93
2023-01-20T01:27:50.640Z,-1.00
2023-01-20T01:30:18.759Z,-1.08
2023-01-20T01:32:46.647Z,-1.03
2023-01-20T01:35:15.348Z,-1.04
2023-01-20T01:37:43.224Z,-1.02
2023-01-20T01:40:13.142Z,-1.01
2023-01-20T01:42:42.845Z,-1.01
2023-01-20T01:45:30.784Z,-1.04
2023-01-20T01:48:06.680Z,-1.07
2023-01-20T01:50:40.667Z,-1.05
2023-01-20T01:53:09.785Z,-1.02
2023-01-20T01:55:44.740Z,-1.02
2023-01-20T01:58:16.512Z,-1.02
2023-01-20T02:00:45.492Z,-1.05
2023-01-20T02:03:14.112Z,-1.04
2023-01-20T02:05:44.571Z,-1.10
2023-01-20T02:08:12.221Z,-1.09
2023-01-20T02:10:41.318Z,-1.07
2023-01-20T02:13:09.824Z,-0.99
2023-01-20T02:15:43.424Z,-0.95
2023-01-20T02:18:26.019Z,-0.89
2023-01-20T02:21:35.504Z,-0.88
2023-01-20T02:24:37.302Z,-0.90
2023-01-20T02:27:12.170Z,-0.93
2023-01-20T02:30:14.143Z,-0.96
2023-01-20T02:32:50.963Z,-0.99
2023-01-20T02:35:26.517Z,-1.01
2023-01-20T02:38:04.162Z,-1.00
2023-01-20T02:40:40.550Z,-0.98
2023-01-20T02:43:12.780Z,-1.00
2023-01-20T02:45:46.402Z,-1.00
2023-01-20T02:48:23.190Z,-0.99
2023-01-20T02:51:00.165Z,-0.98
2023-01-20T02:53:33.709Z,-0.97
2023-01-20T02:56:01.601Z,-0.97
2023-01-20T02:58:37.983Z,-0.92
2023-01-20T03:01:12.726Z,-0.90
2023-01-20T03:03:46.908Z,-0.89
2023-01-20T03:06:19.478Z,-0.90
2023-01-20T03:08:50.082Z,-0.93
2023-01-20T03:11:18.265Z,-0.95
2023-01-20T03:13:52.243Z,-0.96
2023-01-20T03:16:23.293Z,-0.92
2023-01-20T03:18:53.141Z,-1.00
2023-01-20T03:21:21.794Z,-1.03
2023-01-20T03:23:52.456Z,-1.07
2023-01-20T03:26:22.692Z,-1.11
2023-01-20T03:28:50.998Z,-1.12
2023-01-20T03:31:22.467Z,-1.12
2023-01-20T03:33:54.265Z,-1.16
2023-01-20T03:36:24.527Z,-1.25
2023-01-20T03:38:54.229Z,-1.33
2023-01-20T03:41:31.482Z,-1.39
2023-01-20T03:44:11.013Z,-1.40
2023-01-20T03:46:45.895Z,-1.45
2023-01-20T03:49:21.886Z,-1.48
2023-01-20T03:52:01.345Z,-1.50
2023-01-20T03:54:35.295Z,-1.50
2023-01-20T03:57:08.295Z,-1.50
2023-01-20T03:59:39.350Z,-1.51
2023-01-20T04:02:09.364Z,-1.51
2023-01-20T04:04:40.344Z,-1.51
2023-01-20T04:07:12.387Z,-1.46
2023-01-20T04:09:43.536Z,-1.42
2023-01-20T04:12:11.879Z,-1.42
2023-01-20T04:14:39.594Z,-1.42
2023-01-20T04:17:08.034Z,-1.40
2023-01-20T04:19:36.001Z,-1.39
2023-01-20T04:22:09.421Z,-1.38
2023-01-20T04:24:43.128Z,-1.35
2023-01-20T04:27:10.807Z,-1.35
2023-01-20T04:29:38.527Z,-1.32
2023-01-20T04:32:06.694Z,-1.26
2023-01-20T04:34:34.648Z,-1.22
2023-01-20T04:37:02.391Z,-1.15
2023-01-20T04:39:31.508Z,-1.15
2023-01-20T04:41:59.443Z,-1.07
2023-01-20T04:44:27.147Z,-1.17
2023-01-20T04:46:57.655Z,-1.23
2023-01-20T04:49:25.911Z,-1.26
2023-01-20T04:51:53.679Z,-1.32
2023-01-20T04:54:21.858Z,-1.35
2023-01-20T04:56:51.220Z,-1.39
2023-01-20T04:59:18.922Z,-1.47
2023-01-20T05:01:46.716Z,-1.53
2023-01-20T05:04:14.386Z,-1.65
2023-01-20T05:06:42.771Z,-1.69
2023-01-20T05:09:15.177Z,-1.65
2023-01-20T05:11:43.053Z,-1.61
2023-01-20T05:14:13.500Z,-1.66
2023-01-20T05:16:41.192Z,-1.67
2023-01-20T05:19:09.376Z,-1.80
2023-01-20T05:21:37.122Z,-1.90
2023-01-20T05:24:05.635Z,-1.95
2023-01-20T05:26:33.812Z,-2.01
2023-01-20T05:29:02.857Z,-1.98
2023-01-20T05:31:32.185Z,-1.95
2023-01-20T05:34:00.216Z,-1.96
2023-01-20T05:36:28.346Z,-2.01
2023-01-20T05:38:56.974Z,-2.08
2023-01-20T05:41:25.237Z,-2.12
2023-01-20T05:43:54.158Z,-2.09
2023-01-20T05:46:22.105Z,-2.08
2023-01-20T05:48:51.781Z,-2.10
2023-01-20T05:51:19.513Z,-2.07
2023-01-20T05:53:47.311Z,-2.07
2023-01-20T05:56:15.947Z,-2.05
2023-01-20T05:58:44.068Z,-2.04
2023-01-20T06:01:14.095Z,-2.04
2023-01-20T06:03:42.164Z,-2.06
2023-01-20T06:06:15.641Z,-2.13
2023-01-20T06:08:43.902Z,-2.17
2023-01-20T06:11:11.840Z,-2.19
2023-01-20T06:13:40.069Z,-2.17
2023-01-20T06:16:09.243Z,-2.19
2023-01-20T06:18:37.100Z,-2.29
2023-01-20T06:21:05.053Z,-2.22
2023-01-20T06:23:34.446Z,-2.16
2023-01-20T06:26:03.445Z,-2.12
2023-01-20T06:28:32.985Z,-2.06
2023-01-20T06:31:02.456Z,-2.00
2023-01-20T06:33:30.583Z,-1.92
2023-01-20T06:35:58.427Z,-1.90
2023-01-20T06:38:28.301Z,-1.93
2023-01-20T06:40:59.753Z,-1.80
2023-01-20T06:43:30.453Z,-1.76
2023-01-20T06:46:01.494Z,-1.70
2023-01-20T06:48:30.770Z,-1.68
2023-01-20T06:51:01.819Z,-1.66
2023-01-20T06:53:29.892Z,-1.63
2023-01-20T06:56:00.303Z,-1.62
2023-01-20T06:58:30.707Z,-1.57
2023-01-20T07:01:00.175Z,-1.61
2023-01-20T07:03:27.963Z,-1.53
2023-01-20T07:05:59.540Z,-1.46
2023-01-20T07:08:27.580Z,-1.39
2023-01-20T07:10:55.365Z,-1.40
2023-01-20T07:13:24.828Z,-1.36
2023-01-20T07:15:53.949Z,-1.33
2023-01-20T07:18:22.110Z,-1.33
2023-01-20T07:20:54.711Z,-1.32
2023-01-20T07:23:22.398Z,-1.26
2023-01-20T07:25:58.248Z,-1.25
2023-01-20T07:28:27.716Z,-1.18
2023-01-20T07:30:56.183Z,-1.14
2023-01-20T07:33:23.963Z,-1.06
2023-01-20T07:35:55.105Z,-0.99
2023-01-20T07:38:22.930Z,-0.97
2023-01-20T07:40:50.686Z,-0.91
2023-01-20T07:43:19.031Z,-0.82
2023-01-20T07:45:48.170Z,-0.76
2023-01-20T07:48:15.983Z,-0.81
2023-01-20T07:50:44.006Z,-0.82
2023-01-20T07:53:12.171Z,-0.87
2023-01-20T07:55:40.286Z,-0.85
2023-01-20T07:58:08.490Z,-0.69
2023-01-20T08:00:36.323Z,-0.59
2023-01-20T08:03:05.814Z,-0.56
2023-01-20T08:05:34.499Z,-0.44
2023-01-20T08:08:02.207Z,-0.34
2023-01-20T08:10:30.741Z,-0.34
2023-01-20T08:12:59.352Z,-0.26
2023-01-20T08:15:27.170Z,-0.22
2023-01-20T08:17:55.003Z,-0.11
2023-01-20T08:20:24.358Z,0.01
2023-01-20T08:22:52.111Z,0.09
2023-01-20T08:25:20.044Z,0.21
2023-01-20T08:27:49.522Z,0.31
2023-01-20T08:30:17.544Z,0.33
2023-01-20T08:32:45.266Z,0.35
2023-01-20T08:35:13.207Z,0.37
2023-01-20T08:37:42.533Z,0.45
2023-01-20T08:40:11.655Z,0.63
2023-01-20T08:42:40.106Z,0.71
2023-01-20T08:45:09.925Z,0.76
2023-01-20T08:47:38.128Z,0.76
2023-01-20T08:50:08.348Z,0.76
2023-01-20T08:52:37.010Z,0.77
2023-01-20T08:55:07.146Z,0.72
2023-01-20T08:57:35.837Z,0.81
2023-01-20T09:00:06.590Z,0.90
2023-01-20T09:02:34.924Z,0.94
2023-01-20T09:05:04.027Z,0.98
2023-01-20T09:07:31.820Z,1.07
2023-01-20T09:09:59.669Z,1.10
2023-01-20T09:12:28.868Z,1.19
2023-01-20T09:14:56.581Z,1.12
2023-01-20T09:17:24.494Z,1.08
2023-01-20T09:19:52.778Z,1.08
2023-01-20T09:22:20.657Z,1.05
2023-01-20T09:24:48.407Z,1.01
2023-01-20T09:27:16.390Z,1.04
2023-01-20T09:29:45.576Z,1.11
2023-01-20T09:32:15.482Z,1.16
2023-01-20T09:34:43.206Z,1.19
2023-01-20T09:37:28.631Z,1.25
2023-01-20T09:40:14.121Z,1.25
2023-01-20T09:43:18.783Z,1.27
2023-01-20T09:45:53.974Z,1.29
2023-01-20T09:48:53.278Z,1.34
2023-01-20T09:51:49.918Z,1.39
2023-01-20T09:54:25.180Z,1.52
2023-01-20T09:56:55.737Z,1.60
2023-01-20T09:59:27.968Z,1.67
2023-01-20T10:02:00.264Z,1.75
2023-01-20T10:04:33.915Z,1.80
2023-01-20T10:07:09.796Z,1.87
2023-01-20T10:09:43.567Z,1.89
2023-01-20T10:12:16.402Z,1.96
2023-01-20T10:14:48.329Z,1.98
2023-01-20T10:17:24.536Z,2.04
2023-01-20T10:19:58.835Z,2.10
2023-01-20T10:22:33.287Z,2.12
2023-01-20T10:25:06.795Z,2.15
2023-01-20T10:27:40.904Z,2.06
2023-01-20T10:30:11.995Z,2.10
2023-01-20T10:32:48.387Z,2.03
2023-01-20T10:35:20.668Z,2.07
2023-01-20T10:37:48.663Z,2.02
2023-01-20T10:40:26.430Z,2.02
2023-01-20T10:42:58.379Z,2.03
2023-01-20T10:45:34.865Z,2.16
2023-01-20T10:48:16.881Z,2.14
2023-01-20T10:50:51.804Z,2.15
2023-01-20T10:53:44.435Z,2.08
2023-01-20T10:56:31.701Z,2.11
2023-01-20T10:59:05.414Z,1.96
2023-01-20T11:01:33.246Z,1.90
2023-01-20T11:04:02.436Z,1.93
2023-01-20T11:06:30.126Z,2.00
2023-01-20T11:08:59.342Z,2.10
2023-01-20T11:11:29.441Z,2.19
2023-01-20T11:13:59.484Z,2.38
2023-01-20T11:16:29.621Z,2.69
2023-01-20T11:19:00.512Z,2.60
2023-01-20T11:21:32.070Z,2.79
2023-01-20T11:24:01.009Z,3.01
2023-01-20T11:26:31.520Z,2.89
2023-01-20T11:29:00.999Z,3.01
2023-01-20T11:31:41.476Z,3.34
2023-01-20T11:34:25.442Z,3.18
2023-01-20T11:37:18.491Z,3.01
2023-01-20T11:39:58.944Z,2.91
2023-01-20T11:42:28.771Z,2.88
2023-01-20T11:45:05.697Z,2.90
2023-01-20T11:47:46.081Z,3.09
2023-01-20T11:50:28.047Z,2.98
2023-01-20T11:53:13.338Z,2.69
2023-01-20T11:55:48.726Z,2.71
2023-01-20T11:58:20.246Z,2.68
2023-01-20T12:00:48.564Z,2.66
2023-01-20T12:03:58.346Z,2.78
2023-01-20T12:06:28.923Z,3.10
2023-01-20T12:09:02.477Z,3.21
2023-01-20T12:11:35.053Z,3.47
2023-01-20T12:14:23.013Z,3.41
2023-01-20T12:17:01.554Z,3.16
2023-01-20T12:19:38.246Z,3.07
2023-01-20T12:22:14.072Z,3.03
2023-01-20T12:25:10.219Z,3.12
2023-01-20T12:27:44.901Z,3.22
2023-01-20T12:30:35.701Z,3.42
2023-01-20T12:33:03.879Z,3.45
2023-01-20T12:35:39.095Z,3.65
2023-01-20T12:38:09.559Z,3.87
2023-01-20T12:40:46.261Z,3.87
2023-01-20T12:43:39.273Z,3.93
2023-01-20T12:46:31.451Z,3.98
2023-01-20T12:49:14.527Z,4.08
2023-01-20T12:51:54.715Z,4.24
2023-01-20T12:54:52.617Z,4.13
2023-01-20T12:57:40.217Z,4.16
2023-01-20T13:00:24.191Z,3.94
2023-01-20T13:03:24.892Z,4.00
2023-01-20T13:06:08.184Z,3.89
2023-01-20T13:08:46.527Z,3.60
2023-01-20T13:11:21.073Z,3.52
2023-01-20T13:14:07.959Z,3.54
2023-01-20T13:16:44.051Z,3.67
2023-01-20T13:19:15.204Z,3.74
2023-01-20T13:21:43.517Z,3.68
2023-01-20T13:24:18.944Z,3.54
2023-01-20T13:26:49.217Z,3.62
2023-01-20T13:29:41.191Z,3.60
2023-01-20T13:32:27.800Z,3.59
2023-01-20T13:34:56.162Z,3.58
2023-01-20T13:37:30.158Z,3.54
2023-01-20T13:39:59.790Z,3.57
2023-01-20T13:42:48.866Z,3.61
2023-01-20T13:45:23.647Z,3.69
2023-01-20T13:48:02.474Z,3.71
2023-01-20T13:50:33.083Z,3.70
2023-01-20T13:53:14.419Z,3.64
2023-01-20T13:55:56.570Z,3.56
2023-01-20T13:58:25.668Z,3.53
2023-01-20T14:00:56.612Z,3.50
2023-01-20T14:03:28.827Z,3.48
2023-01-20T14:05:59.088Z,3.49
2023-01-20T14:08:29.141Z,3.51
2023-01-20T14:11:14.315Z,3.40
2023-01-20T14:13:43.661Z,3.47
2023-01-20T14:16:22.310Z,3.46
2023-01-20T14:18:51.154Z,3.41
2023-01-20T14:21:21.561Z,3.43
2023-01-20T14:23:50.885Z,3.42
2023-01-20T14:26:22.877Z,3.41
2023-01-20T14:28:52.611Z,3.45
2023-01-20T14:31:35.184Z,3.38
2023-01-20T14:34:19.836Z,3.44
2023-01-20T14:36:48.173Z,3.35
2023-01-20T14:39:21.568Z,3.31
2023-01-20T14:41:51.543Z,3.32
2023-01-20T14:44:22.179Z,3.27
2023-01-20T14:46:54.661Z,3.26
2023-01-20T14:49:26.659Z,3.31
2023-01-20T14:51:55.133Z,3.23
2023-01-20T14:54:39.987Z,3.19
2023-01-20T14:57:21.789Z,3.11
2023-01-20T15:00:02.830Z,3.08
2023-01-20T15:02:34.778Z,3.06
2023-01-20T15:05:03.328Z,3.07
2023-01-20T15:07:31.167Z,3.02
2023-01-20T15:10:03.122Z,2.97
2023-01-20T15:12:42.399Z,2.93
2023-01-20T15:15:24.324Z,2.91
2023-01-20T15:18:16.440Z,2.87
2023-01-20T15:20:46.685Z,2.85
2023-01-20T15:23:19.667Z,2.79
2023-01-20T15:25:47.991Z,2.77
2023-01-20T15:28:24.824Z,2.79
2023-01-20T15:30:54.450Z,2.75
2023-01-20T15:33:24.127Z,2.76
2023-01-20T15:35:54.165Z,2.82
2023-01-20T15:38:22.408Z,2.82
2023-01-20T15:40:50.378Z,2.80
2023-01-20T15:43:19.144Z,2.80
2023-01-20T15:45:47.512Z,2.85
2023-01-20T15:48:17.269Z,2.78
2023-01-20T15:50:46.791Z,2.72
2023-01-20T15:53:15.580Z,2.72
2023-01-20T15:55:49.012Z,2.73
2023-01-20T15:58:26.035Z,2.68
2023-01-20T16:00:55.132Z,2.68
2023-01-20T16:03:23.475Z,2.61
2023-01-20T16:05:54.315Z,2.61
2023-01-20T16:08:24.747Z,2.57
2023-01-20T16:10:52.480Z,2.62
2023-01-20T16:13:20.214Z,2.68
2023-01-20T16:15:48.023Z,2.75
2023-01-20T16:18:17.767Z,2.85
2023-01-20T16:20:47.377Z,2.86
2023-01-20T16:23:17.081Z,2.86
2023-01-20T16:25:45.127Z,3.03
2023-01-20T16:28:15.254Z,3.03
2023-01-20T16:30:43.441Z,2.82
2023-01-20T16:33:19.734Z,2.62
2023-01-20T16:35:47.578Z,2.41
2023-01-20T16:38:19.474Z,2.26
2023-01-20T16:40:50.470Z,2.13
2023-01-20T16:43:18.803Z,1.87
2023-01-20T16:45:52.560Z,1.87
2023-01-20T16:48:20.504Z,1.46
2023-01-20T16:50:48.529Z,1.32
2023-01-20T16:53:18.929Z,1.19
2023-01-20T16:55:47.973Z,1.15
2023-01-20T16:58:16.717Z,1.12
2023-01-20T17:00:44.537Z,1.07
2023-01-20T17:03:12.309Z,0.99
2023-01-20T17:05:40.053Z,0.96
2023-01-20T17:08:08.046Z,0.95
2023-01-20T17:10:37.139Z,0.94
2023-01-20T17:13:04.882Z,0.95
2023-01-20T17:15:32.834Z,1.04
2023-01-20T17:18:00.647Z,1.04
2023-01-20T17:20:31.037Z,1.00
2023-01-20T17:22:58.861Z,1.01
2023-01-20T17:25:27.460Z,0.99
2023-01-20T17:27:56.590Z,1.01
2023-01-20T17:30:26.296Z,1.05
2023-01-20T17:32:54.438Z,1.04
2023-01-20T17:35:22.262Z,1.03
2023-01-20T17:37:50.140Z,0.96
2023-01-20T17:40:18.670Z,0.99
2023-01-20T17:42:49.376Z,0.92
2023-01-20T17:45:18.445Z,0.89
2023-01-20T17:47:46.210Z,0.89
2023-01-20T17:50:14.353Z,0.91
2023-01-20T17:52:42.920Z,0.83
2023-01-20T17:55:11.652Z,0.79
2023-01-20T17:57:39.433Z,0.78
2023-01-20T18:00:09.680Z,0.87
2023-01-20T18:02:39.206Z,0.86
2023-01-20T18:05:09.092Z,0.85
2023-01-20T18:07:38.070Z,0.87
2023-01-20T18:10:07.056Z,0.80
2023-01-20T18:12:35.527Z,0.80
2023-01-20T18:15:04.120Z,0.78
2023-01-20T18:17:34.428Z,0.83
2023-01-20T18:20:03.632Z,0.80
2023-01-20T18:22:31.347Z,0.76
2023-01-20T18:24:59.161Z,0.82
2023-01-20T18:27:27.358Z,0.92
2023-01-20T18:29:55.182Z,0.80
2023-01-20T18:32:23.287Z,0.71
2023-01-20T18:34:51.483Z,0.76
2023-01-20T18:37:20.687Z,0.75
2023-01-20T18:39:48.718Z,0.76
2023-01-20T18:42:16.420Z,0.72
2023-01-20T18:44:44.566Z,0.73
2023-01-20T18:47:12.686Z,0.67
2023-01-20T18:49:40.502Z,0.67
2023-01-20T18:52:09.203Z,0.75
2023-01-20T18:54:39.118Z,0.72
2023-01-20T18:57:09.000Z,0.68
2023-01-20T18:59:37.218Z,0.63
2023-01-20T19:02:08.709Z,0.61
2023-01-20T19:04:37.340Z,0.64
2023-01-20T19:07:06.640Z,0.63
2023-01-20T19:09:35.120Z,0.78
2023-01-20T19:12:04.966Z,0.72
2023-01-20T19:14:33.375Z,0.84
2023-01-20T19:17:01.561Z,0.76
2023-01-20T19:19:29.349Z,0.69
2023-01-20T19:21:57.771Z,0.63
2023-01-20T19:24:29.071Z,0.78
2023-01-20T19:26:58.155Z,0.87
2023-01-20T19:29:29.349Z,0.70
2023-01-20T19:31:57.732Z,0.62
2023-01-20T19:34:26.494Z,0.62
2023-01-20T19:36:54.283Z,0.70
2023-01-20T19:39:22.191Z,0.76
2023-01-20T19:41:51.059Z,0.67
2023-01-20T19:44:18.816Z,0.73
2023-01-20T19:46:51.015Z,0.57
2023-01-20T19:49:19.020Z,0.62
2023-01-20T19:51:47.288Z,0.71
2023-01-20T19:54:15.294Z,0.60
2023-01-20T19:56:43.044Z,0.57
2023-01-20T19:59:13.194Z,0.65
2023-01-20T20:01:41.174Z,0.62
2023-01-20T20:04:13.381Z,0.63
2023-01-20T20:06:47.768Z,0.61
2023-01-20T20:09:17.685Z,0.66
2023-01-20T20:11:46.184Z,0.72
2023-01-20T20:14:16.216Z,0.62
2023-01-20T20:16:44.178Z,0.56
2023-01-20T20:19:15.959Z,0.54
2023-01-20T20:21:44.064Z,0.58
2023-01-20T20:24:13.970Z,0.57
2023-01-20T20:26:44.494Z,0.59
2023-01-20T20:29:13.980Z,0.64
2023-01-20T20:31:42.389Z,0.57
2023-01-20T20:34:14.901Z,0.55
2023-01-20T20:36:43.100Z,0.54
2023-01-20T20:39:15.469Z,0.62
2023-01-20T20:41:43.793Z,0.65
2023-01-20T20:44:13.304Z,0.56
2023-01-20T20:46:41.656Z,0.65
2023-01-20T20:49:15.519Z,0.69
2023-01-20T20:51:43.832Z,0.64
2023-01-20T20:54:16.745Z,0.66
2023-01-20T20:56:44.962Z,0.56
2023-01-20T20:59:14.135Z,0.54
2023-01-20T21:01:42.905Z,0.74
2023-01-20T21:04:12.558Z,0.68
2023-01-20T21:06:44.396Z,0.59
2023-01-20T21:09:13.215Z,0.67
2023-01-20T21:11:43.125Z,0.66
2023-01-20T21:14:12.214Z,0.63
2023-01-20T21:16:40.622Z,0.64
2023-01-20T21:19:09.193Z,0.76
2023-01-20T21:21:37.721Z,0.65
2023-01-20T21:24:10.555Z,0.65
2023-01-20T21:26:38.929Z,0.71
2023-01-20T21:29:07.410Z,0.68
2023-01-20T21:31:35.681Z,0.66
2023-01-20T21:34:03.798Z,0.96
2023-01-20T21:36:33.923Z,0.73
2023-01-20T21:39:02.055Z,0.74
2023-01-20T21:41:31.340Z,0.80
2023-01-20T21:44:16.992Z,0.66
2023-01-20T21:46:44.823Z,0.67
2023-01-20T21:49:30.161Z,0.65
2023-01-20T21:52:16.317Z,0.79
2023-01-20T21:54:45.270Z,0.70
2023-01-20T21:57:15.408Z,0.59
2023-01-20T21:59:45.603Z,0.54
2023-01-20T22:02:14.496Z,0.77
2023-01-20T22:04:42.495Z,0.71
2023-01-20T22:07:11.512Z,0.69
2023-01-20T22:09:39.530Z,0.78
2023-01-20T22:12:08.572Z,0.64
2023-01-20T22:14:37.861Z,0.61
2023-01-20T22:17:05.992Z,0.62
2023-01-20T22:19:33.792Z,0.69
2023-01-20T22:22:02.351Z,0.55
2023-01-20T22:24:30.546Z,0.58
2023-01-20T22:26:58.854Z,0.55
2023-01-20T22:29:26.961Z,0.58
2023-01-20T22:31:57.580Z,0.56
2023-01-20T22:34:25.855Z,0.52
2023-01-20T22:36:56.088Z,0.53
2023-01-20T22:39:23.990Z,0.56
2023-01-20T22:41:51.695Z,0.58
2023-01-20T22:44:19.492Z,0.50
2023-01-20T22:46:47.810Z,0.60
2023-01-20T22:49:17.017Z,0.54
2023-01-20T22:51:45.078Z,0.63
2023-01-20T22:54:12.925Z,0.68
2023-01-20T22:56:40.665Z,0.49
2023-01-20T22:59:09.545Z,0.62
2023-01-20T23:01:37.358Z,0.53
2023-01-20T23:04:07.153Z,0.62
2023-01-20T23:06:38.114Z,0.55
2023-01-20T23:09:09.563Z,0.64
2023-01-20T23:11:39.975Z,0.60
2023-01-20T23:14:10.829Z,0.53
2023-01-20T23:16:38.839Z,0.61
2023-01-20T23:19:06.914Z,0.52
2023-01-20T23:21:35.429Z,0.51
2023-01-20T23:24:05.047Z,0.58
2023-01-20T23:26:34.163Z,0.50
2023-01-20T23:29:01.964Z,0.45
2023-01-20T23:31:33.159Z,0.46
2023-01-20T23:34:01.087Z,0.46
2023-01-20T23:36:29.384Z,0.48
2023-01-20T23:38:57.726Z,0.48
2023-01-20T23:41:28.212Z,0.53
2023-01-20T23:43:56.042Z,0.54
2023-01-20T23:46:23.733Z,0.56
2023-01-20T23:48:51.608Z,0.64
2023-01-20T23:51:19.444Z,0.64
2023-01-20T23:53:47.530Z,0.55
2023-01-20T23:56:18.380Z,0.61
2023-01-20T23:58:51.123Z,0.63
